sensor_id;sensor_type;location;lat;lon;timestamp;pressure;altitude;pressure_sealevel;temperature;humidity
66703;BME280;60933;46.398;-63.798;2023-09-18T00:00:59;100781.06;;;19.08;97.02
66703;BME280;60933;46.398;-63.798;2023-09-18T00:03:25;100779.41;;;19.07;96.84
66703;BME280;60933;46.398;-63.798;2023-09-18T00:05:51;100775.19;;;19.05;96.86
66703;BME280;60933;46.398;-63.798;2023-09-18T00:08:19;100778.84;;;19.02;96.58
66703;BME280;60933;46.398;-63.798;2023-09-18T00:10:53;100781.44;;;19.02;97.72
66703;BME280;60933;46.398;-63.798;2023-09-18T00:13:19;100777.25;;;19.00;98.09
66703;BME280;60933;46.398;-63.798;2023-09-18T00:15:47;100792.13;;;18.99;96.54
66703;BME280;60933;46.398;-63.798;2023-09-18T00:18:15;100798.28;;;18.98;96.37
66703;BME280;60933;46.398;-63.798;2023-09-18T00:20:42;100789.91;;;18.91;96.34
66703;BME280;60933;46.398;-63.798;2023-09-18T00:23:09;100787.38;;;18.90;95.94
66703;BME280;60933;46.398;-63.798;2023-09-18T00:25:36;100803.88;;;18.92;95.92
66703;BME280;60933;46.398;-63.798;2023-09-18T00:28:11;100792.78;;;18.87;95.79
66703;BME280;60933;46.398;-63.798;2023-09-18T00:30:46;100792.78;;;18.87;95.75
66703;BME280;60933;46.398;-63.798;2023-09-18T00:33:13;100793.72;;;18.86;95.56
66703;BME280;60933;46.398;-63.798;2023-09-18T00:35:39;100787.81;;;18.82;96.12
66703;BME280;60933;46.398;-63.798;2023-09-18T00:38:05;100783.81;;;18.76;96.07
66703;BME280;60933;46.398;-63.798;2023-09-18T00:40:32;100778.75;;;18.73;95.86
66703;BME280;60933;46.398;-63.798;2023-09-18T00:42:59;100782.31;;;18.72;95.53
66703;BME280;60933;46.398;-63.798;2023-09-18T00:45:25;100784.91;;;18.72;95.44
66703;BME280;60933;46.398;-63.798;2023-09-18T00:47:51;100785.13;;;18.69;95.46
66703;BME280;60933;46.398;-63.798;2023-09-18T00:50:20;100774.94;;;18.64;95.93
66703;BME280;60933;46.398;-63.798;2023-09-18T00:52:48;100778.72;;;18.59;95.90
66703;BME280;60933;46.398;-63.798;2023-09-18T00:55:15;100785.53;;;18.61;95.95
66703;BME280;60933;46.398;-63.798;2023-09-18T00:57:42;100777.03;;;18.58;95.83
66703;BME280;60933;46.398;-63.798;2023-09-18T01:00:09;100785.91;;;18.55;95.63
66703;BME280;60933;46.398;-63.798;2023-09-18T01:02:35;100784.31;;;18.53;96.13
66703;BME280;60933;46.398;-63.798;2023-09-18T01:05:02;100787.09;;;18.49;95.69
66703;BME280;60933;46.398;-63.798;2023-09-18T01:07:28;100786.44;;;18.46;95.87
66703;BME280;60933;46.398;-63.798;2023-09-18T01:09:54;100786.69;;;18.41;96.49
66703;BME280;60933;46.398;-63.798;2023-09-18T01:15:06;100794.63;;;18.40;97.26
66703;BME280;60933;46.398;-63.798;2023-09-18T01:17:35;100790.41;;;18.37;96.80
66703;BME280;60933;46.398;-63.798;2023-09-18T01:20:09;100794.78;;;18.37;96.81
66703;BME280;60933;46.398;-63.798;2023-09-18T01:22:35;100788.72;;;18.36;96.56
66703;BME280;60933;46.398;-63.798;2023-09-18T01:25:01;100787.56;;;18.26;97.16
66703;BME280;60933;46.398;-63.798;2023-09-18T01:27:28;100790.78;;;18.31;96.88
66703;BME280;60933;46.398;-63.798;2023-09-18T01:29:54;100795.16;;;18.30;97.33
66703;BME280;60933;46.398;-63.798;2023-09-18T01:32:25;100787.56;;;18.26;97.36
66703;BME280;60933;46.398;-63.798;2023-09-18T01:34:54;100795.16;;;18.30;97.18
66703;BME280;60933;46.398;-63.798;2023-09-18T01:37:27;100796.16;;;18.28;97.30
66703;BME280;60933;46.398;-63.798;2023-09-18T01:39:55;100798.88;;;18.26;98.27
66703;BME280;60933;46.398;-63.798;2023-09-18T01:42:28;100793.03;;;18.21;98.09
66703;BME280;60933;46.398;-63.798;2023-09-18T01:44:54;100794.16;;;18.17;96.91
66703;BME280;60933;46.398;-63.798;2023-09-18T01:47:23;100802.09;;;18.15;98.38
66703;BME280;60933;46.398;-63.798;2023-09-18T01:49:50;100802.25;;;18.12;98.46
66703;BME280;60933;46.398;-63.798;2023-09-18T01:52:17;100797.94;;;18.11;100.00
66703;BME280;60933;46.398;-63.798;2023-09-18T01:54:43;100786.94;;;18.06;100.00
66703;BME280;60933;46.398;-63.798;2023-09-18T01:57:10;100786.72;;;18.09;98.46
66703;BME280;60933;46.398;-63.798;2023-09-18T01:59:37;100790.09;;;18.11;95.50
66703;BME280;60933;46.398;-63.798;2023-09-18T02:02:04;100793.66;;;18.10;97.70
66703;BME280;60933;46.398;-63.798;2023-09-18T02:04:33;100794.56;;;18.09;97.66
66703;BME280;60933;46.398;-63.798;2023-09-18T02:06:59;100798.88;;;18.10;97.50
66703;BME280;60933;46.398;-63.798;2023-09-18T02:09:25;100799.72;;;18.11;99.38
66703;BME280;60933;46.398;-63.798;2023-09-18T02:11:51;100813.72;;;18.10;100.00
66703;BME280;60933;46.398;-63.798;2023-09-18T02:14:18;100806.13;;;18.05;100.00
66703;BME280;60933;46.398;-63.798;2023-09-18T02:16:44;100808.16;;;18.00;97.77
66703;BME280;60933;46.398;-63.798;2023-09-18T02:19:12;100816.72;;;18.02;100.00
66703;BME280;60933;46.398;-63.798;2023-09-18T02:21:42;100822.06;;;18.00;100.00
66703;BME280;60933;46.398;-63.798;2023-09-18T02:24:09;100824.09;;;17.94;100.00
66703;BME280;60933;46.398;-63.798;2023-09-18T02:26:35;100820.16;;;17.86;100.00
66703;BME280;60933;46.398;-63.798;2023-09-18T02:29:05;100834.13;;;17.85;100.00
66703;BME280;60933;46.398;-63.798;2023-09-18T02:31:32;100819.72;;;17.78;100.00
66703;BME280;60933;46.398;-63.798;2023-09-18T02:33:58;100811.31;;;17.73;100.00
66703;BME280;60933;46.398;-63.798;2023-09-18T02:36:24;100826.63;;;17.79;100.00
66703;BME280;60933;46.398;-63.798;2023-09-18T02:38:50;100833.88;;;17.74;100.00
66703;BME280;60933;46.398;-63.798;2023-09-18T02:41:16;100839.34;;;17.69;100.00
66703;BME280;60933;46.398;-63.798;2023-09-18T02:43:42;100831.75;;;17.65;100.00
66703;BME280;60933;46.398;-63.798;2023-09-18T02:46:09;100845.72;;;17.64;100.00
66703;BME280;60933;46.398;-63.798;2023-09-18T02:48:35;100836.38;;;17.60;100.00
66703;BME280;60933;46.398;-63.798;2023-09-18T02:51:02;100833.78;;;17.60;100.00
66703;BME280;60933;46.398;-63.798;2023-09-18T02:53:31;100841.69;;;17.58;100.00
66703;BME280;60933;46.398;-63.798;2023-09-18T02:55:58;100841.00;;;17.54;100.00
66703;BME280;60933;46.398;-63.798;2023-09-18T02:58:25;100842.94;;;17.51;100.00
66703;BME280;60933;46.398;-63.798;2023-09-18T03:00:52;100829.69;;;17.38;100.00
66703;BME280;60933;46.398;-63.798;2023-09-18T03:03:19;100830.69;;;17.35;100.00
66703;BME280;60933;46.398;-63.798;2023-09-18T03:05:45;100843.47;;;17.40;100.00
66703;BME280;60933;46.398;-63.798;2023-09-18T03:08:13;100835.91;;;17.35;100.00
66703;BME280;60933;46.398;-63.798;2023-09-18T03:10:41;100840.50;;;17.30;100.00
66703;BME280;60933;46.398;-63.798;2023-09-18T03:13:08;100847.41;;;17.31;100.00
66703;BME280;60933;46.398;-63.798;2023-09-18T03:15:35;100833.53;;;17.31;100.00
66703;BME280;60933;46.398;-63.798;2023-09-18T03:18:03;100854.00;;;17.38;100.00
66703;BME280;60933;46.398;-63.798;2023-09-18T03:20:30;100850.47;;;17.39;100.00
66703;BME280;60933;46.398;-63.798;2023-09-18T03:22:58;100855.91;;;17.35;100.00
66703;BME280;60933;46.398;-63.798;2023-09-18T03:25:25;100861.91;;;17.37;100.00
66703;BME280;60933;46.398;-63.798;2023-09-18T03:27:52;100866.44;;;17.33;100.00
66703;BME280;60933;46.398;-63.798;2023-09-18T03:30:20;100869.06;;;17.33;100.00
66703;BME280;60933;46.398;-63.798;2023-09-18T03:32:47;100867.69;;;17.26;100.00
66703;BME280;60933;46.398;-63.798;2023-09-18T03:35:16;100875.66;;;17.23;100.00
66703;BME280;60933;46.398;-63.798;2023-09-18T03:37:53;100869.75;;;17.19;100.00
66703;BME280;60933;46.398;-63.798;2023-09-18T03:40:22;100875.88;;;17.18;100.00
66703;BME280;60933;46.398;-63.798;2023-09-18T03:42:49;100881.28;;;17.15;100.00
66703;BME280;60933;46.398;-63.798;2023-09-18T03:45:15;100876.19;;;17.12;100.00
66703;BME280;60933;46.398;-63.798;2023-09-18T03:47:44;100884.72;;;17.16;100.00
66703;BME280;60933;46.398;-63.798;2023-09-18T03:50:11;100885.56;;;17.16;100.00
66703;BME280;60933;46.398;-63.798;2023-09-18T03:52:38;100896.00;;;17.16;100.00
66703;BME280;60933;46.398;-63.798;2023-09-18T03:55:06;100903.06;;;17.14;100.00
66703;BME280;60933;46.398;-63.798;2023-09-18T03:57:32;100878.94;;;17.09;100.00
66703;BME280;60933;46.398;-63.798;2023-09-18T03:59:58;100902.13;;;17.15;100.00
66703;BME280;60933;46.398;-63.798;2023-09-18T04:02:25;100897.97;;;17.11;100.00
66703;BME280;60933;46.398;-63.798;2023-09-18T04:04:53;100912.56;;;17.15;100.00
66703;BME280;60933;46.398;-63.798;2023-09-18T04:07:20;100906.72;;;17.10;100.00
66703;BME280;60933;46.398;-63.798;2023-09-18T04:09:46;100920.84;;;17.06;100.00
66703;BME280;60933;46.398;-63.798;2023-09-18T04:12:13;100920.16;;;17.02;100.00
66703;BME280;60933;46.398;-63.798;2023-09-18T04:14:39;100917.63;;;17.01;100.00
66703;BME280;60933;46.398;-63.798;2023-09-18T04:17:06;100918.81;;;16.93;100.00
66703;BME280;60933;46.398;-63.798;2023-09-18T04:19:32;100936.16;;;16.95;100.00
66703;BME280;60933;46.398;-63.798;2023-09-18T04:22:01;100942.28;;;16.93;100.00
66703;BME280;60933;46.398;-63.798;2023-09-18T04:24:28;100940.72;;;16.89;100.00
66703;BME280;60933;46.398;-63.798;2023-09-18T04:26:54;100931.22;;;16.88;100.00
66703;BME280;60933;46.398;-63.798;2023-09-18T04:29:20;100941.84;;;16.84;100.00
66703;BME280;60933;46.398;-63.798;2023-09-18T04:31:46;100935.03;;;16.81;100.00
66703;BME280;60933;46.398;-63.798;2023-09-18T04:34:13;100941.03;;;16.83;100.00
66703;BME280;60933;46.398;-63.798;2023-09-18T04:36:40;100950.75;;;16.80;100.00
66703;BME280;60933;46.398;-63.798;2023-09-18T04:39:07;100951.06;;;16.73;100.00
66703;BME280;60933;46.398;-63.798;2023-09-18T04:41:34;100946.81;;;16.71;100.00
66703;BME280;60933;46.398;-63.798;2023-09-18T04:44:00;100941.88;;;16.65;100.00
66703;BME280;60933;46.398;-63.798;2023-09-18T04:46:28;100951.50;;;16.64;100.00
66703;BME280;60933;46.398;-63.798;2023-09-18T04:48:55;100954.91;;;16.65;100.00
66703;BME280;60933;46.398;-63.798;2023-09-18T04:51:21;100947.25;;;16.61;100.00
66703;BME280;60933;46.398;-63.798;2023-09-18T04:53:48;100941.28;;;16.59;100.00
66703;BME280;60933;46.398;-63.798;2023-09-18T04:56:14;100950.09;;;16.57;100.00
66703;BME280;60933;46.398;-63.798;2023-09-18T04:58:40;100949.38;;;16.53;100.00
66703;BME280;60933;46.398;-63.798;2023-09-18T05:01:06;100946.91;;;16.50;100.00
66703;BME280;60933;46.398;-63.798;2023-09-18T05:03:34;100950.72;;;16.43;100.00
66703;BME280;60933;46.398;-63.798;2023-09-18T05:06:00;100956.72;;;16.45;100.00
66703;BME280;60933;46.398;-63.798;2023-09-18T05:08:29;100946.56;;;16.39;100.00
66703;BME280;60933;46.398;-63.798;2023-09-18T05:10:56;100952.63;;;16.39;100.00
66703;BME280;60933;46.398;-63.798;2023-09-18T05:13:25;100946.72;;;16.36;100.00
66703;BME280;60933;46.398;-63.798;2023-09-18T05:15:51;100937.97;;;16.37;100.00
66703;BME280;60933;46.398;-63.798;2023-09-18T05:18:17;100935.50;;;16.34;100.00
66703;BME280;60933;46.398;-63.798;2023-09-18T05:20:43;100945.91;;;16.34;100.00
66703;BME280;60933;46.398;-63.798;2023-09-18T05:23:10;100945.09;;;16.33;100.00
66703;BME280;60933;46.398;-63.798;2023-09-18T05:25:36;100930.44;;;16.30;100.00
66703;BME280;60933;46.398;-63.798;2023-09-18T05:28:04;100934.88;;;16.28;100.00
66703;BME280;60933;46.398;-63.798;2023-09-18T05:30:33;100928.13;;;16.24;100.00
66703;BME280;60933;46.398;-63.798;2023-09-18T05:33:02;100942.06;;;16.23;100.00
66703;BME280;60933;46.398;-63.798;2023-09-18T05:35:36;100947.41;;;16.20;100.00
66703;BME280;60933;46.398;-63.798;2023-09-18T05:38:03;100940.66;;;16.16;100.00
66703;BME280;60933;46.398;-63.798;2023-09-18T05:40:31;100939.78;;;16.16;100.00
66703;BME280;60933;46.398;-63.798;2023-09-18T05:42:57;100954.50;;;16.17;100.00
66703;BME280;60933;46.398;-63.798;2023-09-18T05:45:27;100953.69;;;16.16;100.00
66703;BME280;60933;46.398;-63.798;2023-09-18T05:48:03;100961.50;;;16.16;100.00
66703;BME280;60933;46.398;-63.798;2023-09-18T05:50:31;100940.91;;;16.10;100.00
66703;BME280;60933;46.398;-63.798;2023-09-18T05:52:58;100946.00;;;16.13;100.00
66703;BME280;60933;46.398;-63.798;2023-09-18T05:55:32;100954.59;;;16.15;100.00
66703;BME280;60933;46.398;-63.798;2023-09-18T05:57:58;100953.72;;;16.14;100.00
66703;BME280;60933;46.398;-63.798;2023-09-18T06:00:25;100952.75;;;16.17;100.00
66703;BME280;60933;46.398;-63.798;2023-09-18T06:02:51;100951.00;;;16.18;100.00
66703;BME280;60933;46.398;-63.798;2023-09-18T06:05:18;100957.00;;;16.20;100.00
66703;BME280;60933;46.398;-63.798;2023-09-18T06:07:50;100954.31;;;16.21;100.00
66703;BME280;60933;46.398;-63.798;2023-09-18T06:10:16;100956.00;;;16.22;100.00
66703;BME280;60933;46.398;-63.798;2023-09-18T06:12:44;100949.09;;;16.21;100.00
66703;BME280;60933;46.398;-63.798;2023-09-18T06:15:11;100958.53;;;16.24;100.00
66703;BME280;60933;46.398;-63.798;2023-09-18T06:17:39;100963.72;;;16.24;100.00
66703;BME280;60933;46.398;-63.798;2023-09-18T06:20:09;100951.69;;;16.21;100.00
66703;BME280;60933;46.398;-63.798;2023-09-18T06:22:39;100957.69;;;16.23;100.00
66703;BME280;60933;46.398;-63.798;2023-09-18T06:25:07;100956.00;;;16.22;100.00
66703;BME280;60933;46.398;-63.798;2023-09-18T06:27:37;100956.84;;;16.23;100.00
66703;BME280;60933;46.398;-63.798;2023-09-18T06:30:04;100968.94;;;16.24;100.00
66703;BME280;60933;46.398;-63.798;2023-09-18T06:32:31;100962.91;;;16.23;100.00
66703;BME280;60933;46.398;-63.798;2023-09-18T06:34:57;100966.41;;;16.22;100.00
66703;BME280;60933;46.398;-63.798;2023-09-18T06:37:25;100965.56;;;16.22;100.00
66703;BME280;60933;46.398;-63.798;2023-09-18T06:39:51;100967.44;;;16.18;100.00
66703;BME280;60933;46.398;-63.798;2023-09-18T06:42:18;100971.75;;;16.19;100.00
66703;BME280;60933;46.398;-63.798;2023-09-18T06:44:44;100966.69;;;16.16;100.00
66703;BME280;60933;46.398;-63.798;2023-09-18T06:47:10;100965.00;;;16.15;100.00
66703;BME280;60933;46.398;-63.798;2023-09-18T06:49:36;100954.88;;;16.09;100.00
66703;BME280;60933;46.398;-63.798;2023-09-18T06:52:03;100956.53;;;16.10;100.00
66703;BME280;60933;46.398;-63.798;2023-09-18T06:54:30;100962.72;;;16.07;100.00
66703;BME280;60933;46.398;-63.798;2023-09-18T06:56:56;100957.72;;;16.03;100.00
66703;BME280;60933;46.398;-63.798;2023-09-18T06:59:22;100964.00;;;15.98;100.00
66703;BME280;60933;46.398;-63.798;2023-09-18T07:01:48;100958.06;;;15.95;100.00
66703;BME280;60933;46.398;-63.798;2023-09-18T07:04:15;100968.59;;;15.92;100.00
66703;BME280;60933;46.398;-63.798;2023-09-18T07:06:41;100967.91;;;15.88;100.00
66703;BME280;60933;46.398;-63.798;2023-09-18T07:09:07;100974.09;;;15.86;100.00
66703;BME280;60933;46.398;-63.798;2023-09-18T07:11:34;100972.47;;;15.83;100.00
66703;BME280;60933;46.398;-63.798;2023-09-18T07:14:00;100973.41;;;15.80;100.00
66703;BME280;60933;46.398;-63.798;2023-09-18T07:16:28;100968.13;;;15.82;100.00
66703;BME280;60933;46.398;-63.798;2023-09-18T07:18:54;100976.03;;;15.80;100.00
66703;BME280;60933;46.398;-63.798;2023-09-18T07:21:20;100974.53;;;15.75;100.00
66703;BME280;60933;46.398;-63.798;2023-09-18T07:23:46;100977.25;;;15.72;100.00
66703;BME280;60933;46.398;-63.798;2023-09-18T07:26:13;100991.03;;;15.74;100.00
66703;BME280;60933;46.398;-63.798;2023-09-18T07:28:39;100985.97;;;15.71;100.00
66703;BME280;60933;46.398;-63.798;2023-09-18T07:31:08;100992.09;;;15.70;100.00
66703;BME280;60933;46.398;-63.798;2023-09-18T07:33:34;101007.63;;;15.71;100.00
66703;BME280;60933;46.398;-63.798;2023-09-18T07:36:01;101007.75;;;15.68;100.00
66703;BME280;60933;46.398;-63.798;2023-09-18T07:38:27;101006.00;;;15.69;100.00
66703;BME280;60933;46.398;-63.798;2023-09-18T07:40:53;100994.09;;;15.63;100.00
66703;BME280;60933;46.398;-63.798;2023-09-18T07:43:20;101024.22;;;15.69;100.00
66703;BME280;60933;46.398;-63.798;2023-09-18T07:45:46;101018.94;;;15.70;100.00
66703;BME280;60933;46.398;-63.798;2023-09-18T07:48:12;101019.16;;;15.65;100.00
66703;BME280;60933;46.398;-63.798;2023-09-18T07:50:43;101024.28;;;15.67;100.00
66703;BME280;60933;46.398;-63.798;2023-09-18T07:53:09;101024.34;;;15.65;100.00
66703;BME280;60933;46.398;-63.798;2023-09-18T07:55:36;101016.63;;;15.64;100.00
66703;BME280;60933;46.398;-63.798;2023-09-18T07:58:02;101021.03;;;15.62;100.00
66703;BME280;60933;46.398;-63.798;2023-09-18T08:00:29;101024.69;;;15.58;100.00
66703;BME280;60933;46.398;-63.798;2023-09-18T08:02:56;101032.47;;;15.58;100.00
66703;BME280;60933;46.398;-63.798;2023-09-18T08:05:27;101034.22;;;15.57;100.00
66703;BME280;60933;46.398;-63.798;2023-09-18T08:07:54;101035.13;;;15.56;100.00
66703;BME280;60933;46.398;-63.798;2023-09-18T08:10:25;101032.75;;;15.51;100.00
66703;BME280;60933;46.398;-63.798;2023-09-18T08:12:52;101030.13;;;15.51;100.00
66703;BME280;60933;46.398;-63.798;2023-09-18T08:15:19;101036.97;;;15.54;100.00
66703;BME280;60933;46.398;-63.798;2023-09-18T08:17:46;101034.22;;;15.57;100.00
66703;BME280;60933;46.398;-63.798;2023-09-18T08:20:14;101027.41;;;15.55;100.00
66703;BME280;60933;46.398;-63.798;2023-09-18T08:22:42;101016.28;;;15.51;100.00
66703;BME280;60933;46.398;-63.798;2023-09-18T08:25:09;101018.88;;;15.51;100.00
66703;BME280;60933;46.398;-63.798;2023-09-18T08:27:39;101021.59;;;15.48;100.00
66703;BME280;60933;46.398;-63.798;2023-09-18T08:30:10;101023.34;;;15.47;100.00
66703;BME280;60933;46.398;-63.798;2023-09-18T08:32:37;101020.81;;;15.46;100.00
66703;BME280;60933;46.398;-63.798;2023-09-18T08:35:05;101011.44;;;15.42;100.00
66703;BME280;60933;46.398;-63.798;2023-09-18T08:37:31;101020.03;;;15.44;100.00
66703;BME280;60933;46.398;-63.798;2023-09-18T08:39:57;101021.00;;;15.41;100.00
66703;BME280;60933;46.398;-63.798;2023-09-18T08:42:28;101017.53;;;15.41;100.00
66703;BME280;60933;46.398;-63.798;2023-09-18T08:44:58;101013.13;;;15.43;100.00
66703;BME280;60933;46.398;-63.798;2023-09-18T08:47:26;101023.53;;;15.43;100.00
66703;BME280;60933;46.398;-63.798;2023-09-18T08:49:53;101022.63;;;15.44;100.00
66703;BME280;60933;46.398;-63.798;2023-09-18T08:52:20;101020.81;;;15.46;100.00
66703;BME280;60933;46.398;-63.798;2023-09-18T08:54:47;101023.53;;;15.43;100.00
66703;BME280;60933;46.398;-63.798;2023-09-18T08:57:13;101027.94;;;15.41;100.00
66703;BME280;60933;46.398;-63.798;2023-09-18T08:59:40;101037.44;;;15.42;100.00
66703;BME280;60933;46.398;-63.798;2023-09-18T09:02:07;101038.50;;;15.38;100.00
66703;BME280;60933;46.398;-63.798;2023-09-18T09:04:38;101054.91;;;15.40;100.00
66703;BME280;60933;46.398;-63.798;2023-09-18T09:07:04;101045.22;;;15.43;100.00
66703;BME280;60933;46.398;-63.798;2023-09-18T09:09:31;101045.97;;;15.45;100.00
66703;BME280;60933;46.398;-63.798;2023-09-18T09:11:57;101041.56;;;15.47;100.00
66703;BME280;60933;46.398;-63.798;2023-09-18T09:14:23;101039.03;;;15.46;100.00
66703;BME280;60933;46.398;-63.798;2023-09-18T09:16:56;101027.84;;;15.44;100.00
66703;BME280;60933;46.398;-63.798;2023-09-18T09:21:57;101026.50;;;15.33;100.00
66703;BME280;60933;46.398;-63.798;2023-09-18T09:24:43;101044.59;;;15.37;100.00
66703;BME280;60933;46.398;-63.798;2023-09-18T09:27:10;101046.31;;;15.38;100.00
66703;BME280;60933;46.398;-63.798;2023-09-18T09:29:36;101043.81;;;15.34;100.00
66703;BME280;60933;46.398;-63.798;2023-09-18T09:32:13;101042.19;;;15.32;100.00
66703;BME280;60933;46.398;-63.798;2023-09-18T09:34:41;101045.75;;;15.29;100.00
66703;BME280;60933;46.398;-63.798;2023-09-18T09:37:07;101050.84;;;15.32;100.00
66703;BME280;60933;46.398;-63.798;2023-09-18T09:39:34;101041.28;;;15.33;100.00
66703;BME280;60933;46.398;-63.798;2023-09-18T09:42:01;101044.72;;;15.33;100.00
66703;BME280;60933;46.398;-63.798;2023-09-18T09:44:32;101038.84;;;15.28;100.00
66703;BME280;60933;46.398;-63.798;2023-09-18T09:46:59;101051.69;;;15.33;100.00
66703;BME280;60933;46.398;-63.798;2023-09-18T09:49:25;101056.16;;;15.29;100.00
66703;BME280;60933;46.398;-63.798;2023-09-18T09:51:59;101056.97;;;15.31;100.00
66703;BME280;60933;46.398;-63.798;2023-09-18T09:54:34;101056.09;;;15.31;100.00
66703;BME280;60933;46.398;-63.798;2023-09-18T09:57:03;101059.56;;;15.31;100.00
66703;BME280;60933;46.398;-63.798;2023-09-18T09:59:29;101058.66;;;15.32;100.00
66703;BME280;60933;46.398;-63.798;2023-09-18T10:01:59;101056.97;;;15.31;100.00
66703;BME280;60933;46.398;-63.798;2023-09-18T10:04:28;101056.09;;;15.31;100.00
66703;BME280;60933;46.398;-63.798;2023-09-18T10:07:05;101060.31;;;15.33;100.00
66703;BME280;60933;46.398;-63.798;2023-09-18T10:09:35;101063.09;;;15.29;100.00
66703;BME280;60933;46.398;-63.798;2023-09-18T10:12:03;101069.06;;;15.32;100.00
66703;BME280;60933;46.398;-63.798;2023-09-18T10:14:37;101074.25;;;15.32;100.00
66703;BME280;60933;46.398;-63.798;2023-09-18T10:17:15;101075.91;;;15.33;100.00
66703;BME280;60933;46.398;-63.798;2023-09-18T10:19:47;101085.31;;;15.38;100.00
66703;BME280;60933;46.398;-63.798;2023-09-18T10:22:37;101085.31;;;15.38;100.00
66703;BME280;60933;46.398;-63.798;2023-09-18T10:25:11;101094.81;;;15.39;100.00
66703;BME280;60933;46.398;-63.798;2023-09-18T10:27:45;101095.66;;;15.39;100.00
66703;BME280;60933;46.398;-63.798;2023-09-18T10:30:15;101102.56;;;15.40;100.00
66703;BME280;60933;46.398;-63.798;2023-09-18T10:32:45;101107.50;;;15.46;100.00
66703;BME280;60933;46.398;-63.798;2023-09-18T10:35:12;101107.50;;;15.46;100.00
66703;BME280;60933;46.398;-63.798;2023-09-18T10:37:38;101103.94;;;15.49;100.00
66703;BME280;60933;46.398;-63.798;2023-09-18T10:40:08;101106.41;;;15.52;100.00
66703;BME280;60933;46.398;-63.798;2023-09-18T10:42:38;101111.53;;;15.55;100.00
66703;BME280;60933;46.398;-63.798;2023-09-18T10:45:05;101111.25;;;15.61;100.00
66703;BME280;60933;46.398;-63.798;2023-09-18T10:47:33;101119.72;;;15.66;100.00
66703;BME280;60933;46.398;-63.798;2023-09-18T10:50:00;101123.13;;;15.69;100.00
66703;BME280;60933;46.398;-63.798;2023-09-18T10:52:26;101118.03;;;15.65;100.00
66703;BME280;60933;46.398;-63.798;2023-09-18T10:54:53;101124.69;;;15.73;100.00
66703;BME280;60933;46.398;-63.798;2023-09-18T10:57:19;101120.34;;;15.73;100.00
66703;BME280;60933;46.398;-63.798;2023-09-18T10:59:47;101115.97;;;15.74;100.00
66703;BME280;60933;46.398;-63.798;2023-09-18T11:02:17;101128.78;;;15.78;100.00
66703;BME280;60933;46.398;-63.798;2023-09-18T11:04:44;101127.88;;;15.79;100.00
66703;BME280;60933;46.398;-63.798;2023-09-18T11:07:23;101134.00;;;15.78;100.00
66703;BME280;60933;46.398;-63.798;2023-09-18T11:09:50;101128.97;;;15.74;100.00
66703;BME280;60933;46.398;-63.798;2023-09-18T11:12:17;101134.84;;;15.79;100.00
66703;BME280;60933;46.398;-63.798;2023-09-18T11:14:56;101139.94;;;15.82;100.00
66703;BME280;60933;46.398;-63.798;2023-09-18T11:17:39;101133.78;;;15.85;100.00
66703;BME280;60933;46.398;-63.798;2023-09-18T11:22:55;101142.25;;;15.90;100.00
66703;BME280;60933;46.398;-63.798;2023-09-18T11:25:37;101140.13;;;16.00;100.00
66703;BME280;60933;46.398;-63.798;2023-09-18T11:28:05;101136.53;;;16.02;100.00
66703;BME280;60933;46.398;-63.798;2023-09-18T11:30:37;101133.75;;;16.07;100.00
66703;BME280;60933;46.398;-63.798;2023-09-18T11:33:06;101143.78;;;16.16;100.00
66703;BME280;60933;46.398;-63.798;2023-09-18T11:35:35;101140.06;;;16.22;100.00
66703;BME280;60933;46.398;-63.798;2023-09-18T11:38:10;101141.72;;;16.24;100.00
66703;BME280;60933;46.398;-63.798;2023-09-18T11:40:38;101151.69;;;16.35;100.00
66703;BME280;60933;46.398;-63.798;2023-09-18T11:43:22;101160.06;;;16.42;100.00
66703;BME280;60933;46.398;-63.798;2023-09-18T11:45:54;101159.03;;;16.46;100.00
66703;BME280;60933;46.398;-63.798;2023-09-18T11:48:22;101180.50;;;16.51;100.00
66703;BME280;60933;46.398;-63.798;2023-09-18T11:50:51;101182.22;;;16.52;100.00
66703;BME280;60933;46.398;-63.798;2023-09-18T11:53:20;101185.59;;;16.54;100.00
66703;BME280;60933;46.398;-63.798;2023-09-18T11:55:47;101200.09;;;16.60;100.00
66703;BME280;60933;46.398;-63.798;2023-09-18T11:58:14;101203.38;;;16.65;100.00
66703;BME280;60933;46.398;-63.798;2023-09-18T12:00:41;101200.63;;;16.68;100.00
66703;BME280;60933;46.398;-63.798;2023-09-18T12:05:44;101187.19;;;16.77;100.00
66703;BME280;60933;46.398;-63.798;2023-09-18T12:08:11;101190.53;;;16.81;100.00
66703;BME280;60933;46.398;-63.798;2023-09-18T12:10:38;101187.72;;;16.86;100.00
66703;BME280;60933;46.398;-63.798;2023-09-18T12:13:07;101184.00;;;16.91;100.00
66703;BME280;60933;46.398;-63.798;2023-09-18T12:15:34;101187.91;;;17.02;100.00
66703;BME280;60933;46.398;-63.798;2023-09-18T12:18:08;101199.63;;;17.12;100.00
66703;BME280;60933;46.398;-63.798;2023-09-18T12:20:34;101193.19;;;17.19;100.00
66703;BME280;60933;46.398;-63.798;2023-09-18T12:23:02;101201.53;;;17.28;100.00
66703;BME280;60933;46.398;-63.798;2023-09-18T12:25:28;101198.59;;;17.35;100.00
66703;BME280;60933;46.398;-63.798;2023-09-18T12:27:55;101196.31;;;17.47;100.00
66703;BME280;60933;46.398;-63.798;2023-09-18T12:30:22;101194.31;;;17.52;100.00
66703;BME280;60933;46.398;-63.798;2023-09-18T12:32:52;101190.59;;;17.58;100.00
66703;BME280;60933;46.398;-63.798;2023-09-18T12:35:19;101187.69;;;17.64;100.00
66703;BME280;60933;46.398;-63.798;2023-09-18T12:37:45;101189.06;;;17.71;100.00